createdAt,value
2023-02-17T00:01:37.437Z,1.00
2023-02-17T00:04:05.851Z,1.10
2023-02-17T00:06:35.247Z,1.10
2023-02-17T00:09:03.751Z,1.10
2023-02-17T00:11:31.862Z,1.10
2023-02-17T00:14:00.483Z,1.10
2023-02-17T00:16:29.204Z,1.20
2023-02-17T00:18:59.730Z,1.20
2023-02-17T00:21:30.250Z,1.20
2023-02-17T00:24:00.374Z,1.30
2023-02-17T00:26:28.695Z,1.30
2023-02-17T00:28:56.784Z,1.30
2023-02-17T00:31:25.271Z,1.40
2023-02-17T00:33:55.833Z,1.40
2023-02-17T00:36:24.861Z,1.40
2023-02-17T00:38:54.839Z,1.40
2023-02-17T00:41:24.772Z,1.50
2023-02-17T00:43:52.903Z,1.50
2023-02-17T00:46:21.366Z,1.60
2023-02-17T00:48:50.481Z,1.60
2023-02-17T00:51:19.140Z,1.70
2023-02-17T00:53:47.480Z,1.70
2023-02-17T00:56:15.881Z,1.70
2023-02-17T00:58:46.184Z,1.70
2023-02-17T01:01:14.645Z,1.80
2023-02-17T01:03:43.112Z,1.80
2023-02-17T01:06:19.496Z,1.80
2023-02-17T01:08:47.568Z,1.80
2023-02-17T01:11:18.958Z,1.90
2023-02-17T01:13:48.376Z,1.90
2023-02-17T01:16:19.494Z,1.90
2023-02-17T01:18:47.624Z,1.90
2023-02-17T01:21:19.501Z,2.00
2023-02-17T01:23:49.291Z,2.10
2023-02-17T01:26:19.138Z,2.20
2023-02-17T01:28:49.116Z,2.30
2023-02-17T01:31:18.352Z,2.30
2023-02-17T01:33:46.466Z,2.40
2023-02-17T01:36:17.772Z,2.50
2023-02-17T01:38:46.398Z,2.50
2023-02-17T01:41:16.164Z,2.50
2023-02-17T01:43:44.238Z,2.50
2023-02-17T01:46:13.690Z,2.50
2023-02-17T01:48:44.950Z,2.60
2023-02-17T01:51:19.779Z,2.60
2023-02-17T01:53:51.975Z,2.60
2023-02-17T01:56:20.231Z,2.60
2023-02-17T01:58:54.790Z,2.70
2023-02-17T02:01:24.354Z,2.80
2023-02-17T02:03:53.584Z,2.80
2023-02-17T02:06:26.827Z,3.00
2023-02-17T02:08:58.552Z,3.30
2023-02-17T02:11:27.453Z,3.80
2023-02-17T02:13:55.830Z,4.10
2023-02-17T02:16:30.900Z,4.40
2023-02-17T02:19:05.676Z,4.50
2023-02-17T02:21:58.106Z,4.70
2023-02-17T02:24:34.085Z,4.90
2023-02-17T02:27:37.033Z,5.10
2023-02-17T02:30:50.322Z,5.30
2023-02-17T02:33:26.791Z,5.50
2023-02-17T02:36:00.229Z,5.80
2023-02-17T02:38:32.400Z,6.00
2023-02-17T02:41:05.427Z,6.10
2023-02-17T02:43:34.105Z,6.20
2023-02-17T02:46:02.249Z,6.40
2023-02-17T02:48:32.117Z,6.50
2023-02-17T02:51:21.127Z,6.60
2023-02-17T02:54:18.841Z,6.70
2023-02-17T02:57:03.122Z,6.80
2023-02-17T02:59:42.849Z,6.90
2023-02-17T03:02:19.284Z,7.00
2023-02-17T03:04:54.830Z,7.10
2023-02-17T03:07:28.774Z,7.10
2023-02-17T03:09:58.942Z,7.10
2023-02-17T03:12:29.113Z,7.00
2023-02-17T03:15:02.246Z,7.00
2023-02-17T03:17:32.738Z,6.90
2023-02-17T03:20:03.897Z,6.90
2023-02-17T03:22:36.517Z,6.90
2023-02-17T03:25:05.197Z,6.90
2023-02-17T03:27:33.349Z,7.00
2023-02-17T03:30:01.491Z,7.00
2023-02-17T03:32:29.608Z,7.10
2023-02-17T03:34:57.765Z,7.10
2023-02-17T03:37:27.211Z,7.00
2023-02-17T03:39:55.112Z,7.00
2023-02-17T03:42:23.234Z,7.10
2023-02-17T03:44:51.265Z,7.10
2023-02-17T03:47:19.309Z,7.10
2023-02-17T03:49:47.361Z,7.10
2023-02-17T03:52:15.414Z,7.20
2023-02-17T03:54:45.404Z,7.20
2023-02-17T03:57:13.500Z,7.20
2023-02-17T03:59:41.603Z,7.10
2023-02-17T04:02:09.685Z,7.10
2023-02-17T04:04:39.132Z,7.20
2023-02-17T04:07:07.189Z,7.10
2023-02-17T04:09:35.270Z,7.10
2023-02-17T04:12:05.100Z,7.10
2023-02-17T04:14:33.195Z,7.20
2023-02-17T04:17:01.300Z,7.20
2023-02-17T04:19:29.405Z,7.20
2023-02-17T04:21:57.484Z,7.20
2023-02-17T04:24:25.550Z,7.30
2023-02-17T04:26:53.734Z,7.30
2023-02-17T04:29:23.145Z,7.30
2023-02-17T04:31:51.357Z,7.30
2023-02-17T04:34:19.475Z,7.30
2023-02-17T04:36:47.536Z,7.40
2023-02-17T04:39:15.710Z,7.30
2023-02-17T04:41:43.890Z,7.30
2023-02-17T04:44:12.079Z,7.20
2023-02-17T04:46:41.525Z,7.20
2023-02-17T04:49:09.600Z,7.20
2023-02-17T04:51:37.674Z,7.10
2023-02-17T04:54:06.149Z,7.10
2023-02-17T04:56:34.192Z,7.10
2023-02-17T04:59:02.292Z,7.20
2023-02-17T05:01:30.358Z,7.20
2023-02-17T05:03:59.773Z,7.30
2023-02-17T05:06:27.852Z,7.20
2023-02-17T05:08:55.944Z,7.20
2023-02-17T05:11:25.200Z,7.20
2023-02-17T05:13:53.284Z,7.10
2023-02-17T05:16:21.389Z,7.10
2023-02-17T05:18:49.484Z,7.10
2023-02-17T05:21:18.894Z,7.00
2023-02-17T05:23:46.981Z,7.10
2023-02-17T05:26:15.005Z,7.10
2023-02-17T05:28:43.198Z,7.00
2023-02-17T05:31:12.552Z,7.00
2023-02-17T05:33:40.679Z,6.90
2023-02-17T05:36:10.391Z,6.80
2023-02-17T05:38:40.832Z,6.80
2023-02-17T05:41:09.161Z,6.80
2023-02-17T05:43:37.236Z,6.80
2023-02-17T05:46:06.734Z,6.80
2023-02-17T05:48:35.426Z,6.80
2023-02-17T05:51:03.488Z,6.80
2023-02-17T05:53:31.580Z,6.90
2023-02-17T05:56:01.002Z,6.90
2023-02-17T05:58:29.175Z,6.90
2023-02-17T06:00:57.252Z,6.80
2023-02-17T06:03:25.309Z,6.90
2023-02-17T06:05:53.396Z,6.90
2023-02-17T06:08:21.447Z,6.90
2023-02-17T06:10:49.480Z,6.90
2023-02-17T06:13:18.882Z,6.90
2023-02-17T06:15:47.501Z,6.90
2023-02-17T06:18:15.989Z,6.80
2023-02-17T06:20:44.035Z,6.80
2023-02-17T06:23:12.548Z,6.80
2023-02-17T06:25:40.666Z,6.90
2023-02-17T06:28:08.721Z,6.90
2023-02-17T06:30:38.144Z,6.90
2023-02-17T06:33:06.195Z,6.90
2023-02-17T06:35:34.368Z,7.00
2023-02-17T06:38:02.453Z,7.00
2023-02-17T06:40:30.578Z,7.00
2023-02-17T06:42:58.643Z,7.00
2023-02-17T06:45:26.776Z,7.00
2023-02-17T06:47:56.286Z,7.10
2023-02-17T06:50:24.350Z,7.20
2023-02-17T06:52:52.454Z,7.30
2023-02-17T06:55:20.528Z,7.30
2023-02-17T06:57:48.606Z,7.30
2023-02-17T07:00:17.180Z,7.40
2023-02-17T07:02:45.370Z,7.60
2023-02-17T07:05:14.836Z,7.60
2023-02-17T07:07:42.967Z,7.60
2023-02-17T07:10:11.743Z,7.70
2023-02-17T07:12:39.782Z,7.70
2023-02-17T07:15:11.822Z,7.80
2023-02-17T07:17:40.287Z,7.80
2023-02-17T07:20:09.720Z,7.90
2023-02-17T07:22:39.156Z,7.90
2023-02-17T07:25:08.071Z,8.00
2023-02-17T07:27:37.210Z,8.10
2023-02-17T07:30:06.840Z,8.20
2023-02-17T07:32:35.596Z,8.10
2023-02-17T07:35:03.716Z,8.10
2023-02-17T07:37:31.785Z,8.10
2023-02-17T07:40:01.285Z,8.10
2023-02-17T07:42:29.333Z,8.20
2023-02-17T07:44:57.369Z,8.20
2023-02-17T07:47:25.472Z,8.20
2023-02-17T07:49:53.556Z,8.30
2023-02-17T07:52:21.609Z,8.30
2023-02-17T07:54:49.681Z,8.30
2023-02-17T07:57:19.156Z,8.30
2023-02-17T07:59:47.204Z,8.40
2023-02-17T08:02:15.496Z,8.40
2023-02-17T08:04:43.921Z,8.40
2023-02-17T08:07:12.040Z,8.40
2023-02-17T08:09:57.874Z,8.40
2023-02-17T08:12:44.716Z,8.30
2023-02-17T08:15:13.081Z,8.30
2023-02-17T08:17:41.217Z,8.30
2023-02-17T08:20:10.202Z,8.30
2023-02-17T08:22:38.502Z,8.40
2023-02-17T08:25:07.022Z,8.40
2023-02-17T08:27:36.472Z,8.40
2023-02-17T08:30:05.132Z,8.40
2023-02-17T08:32:33.240Z,8.40
2023-02-17T08:35:01.791Z,8.50
2023-02-17T08:37:30.258Z,8.50
2023-02-17T08:39:59.011Z,8.60
2023-02-17T08:42:27.439Z,8.70
2023-02-17T08:44:56.921Z,8.80
2023-02-17T08:47:24.764Z,8.80
2023-02-17T08:49:52.900Z,8.90
2023-02-17T08:52:21.056Z,9.00
2023-02-17T08:54:50.978Z,9.20
2023-02-17T08:57:21.487Z,9.20
2023-02-17T08:59:49.656Z,9.20
2023-02-17T09:02:19.759Z,9.30
2023-02-17T09:04:47.906Z,9.30
2023-02-17T09:07:17.252Z,9.30
2023-02-17T09:09:45.684Z,9.40
2023-02-17T09:12:13.782Z,9.50
2023-02-17T09:14:41.980Z,9.60
2023-02-17T09:17:11.335Z,9.60
2023-02-17T09:19:41.095Z,9.70
2023-02-17T09:22:12.048Z,9.70
2023-02-17T09:24:43.606Z,9.70
2023-02-17T09:27:11.718Z,9.60
2023-02-17T09:29:41.656Z,9.60
2023-02-17T09:32:10.687Z,9.60
2023-02-17T09:34:41.882Z,9.60
2023-02-17T09:37:12.979Z,9.60
2023-02-17T09:39:41.107Z,9.60
2023-02-17T09:42:18.494Z,9.60
2023-02-17T09:44:49.848Z,9.60
2023-02-17T09:47:21.731Z,9.70
2023-02-17T09:49:56.316Z,9.70
2023-02-17T09:52:30.502Z,9.80
2023-02-17T09:55:06.171Z,9.90
2023-02-17T09:57:38.737Z,9.90
2023-02-17T10:00:11.754Z,9.90
2023-02-17T10:02:48.192Z,9.80
2023-02-17T10:05:21.187Z,9.80
2023-02-17T10:07:53.946Z,9.80
2023-02-17T10:10:26.694Z,9.80
2023-02-17T10:12:58.131Z,9.80
2023-02-17T10:15:29.003Z,9.80
2023-02-17T10:18:02.957Z,9.80
2023-02-17T10:20:36.868Z,9.80
2023-02-17T10:23:08.236Z,10.00
2023-02-17T10:25:49.971Z,10.30
2023-02-17T10:28:25.457Z,10.40
2023-02-17T10:31:02.993Z,10.60
2023-02-17T10:33:37.558Z,10.80
2023-02-17T10:36:13.325Z,11.00
2023-02-17T10:38:51.550Z,11.10
2023-02-17T10:41:24.908Z,11.20
2023-02-17T10:43:53.710Z,11.40
2023-02-17T10:46:28.249Z,11.50
2023-02-17T10:48:58.510Z,11.30
2023-02-17T10:51:30.883Z,11.20
2023-02-17T10:54:04.526Z,11.10
2023-02-17T10:56:38.685Z,11.10
2023-02-17T10:59:10.067Z,11.10
2023-02-17T11:01:38.595Z,11.00
2023-02-17T11:04:10.177Z,11.10
2023-02-17T11:06:45.828Z,11.10
2023-02-17T11:09:23.384Z,11.30
2023-02-17T11:11:58.765Z,11.60
2023-02-17T11:14:29.626Z,11.90
2023-02-17T11:17:00.243Z,12.10
2023-02-17T11:19:30.353Z,12.40
2023-02-17T11:22:00.616Z,12.70
2023-02-17T11:24:31.616Z,13.00
2023-02-17T11:27:02.270Z,13.40
2023-02-17T11:29:31.211Z,13.80
2023-02-17T11:32:01.465Z,14.10
2023-02-17T11:34:32.936Z,14.00
2023-02-17T11:37:15.973Z,14.10
2023-02-17T11:39:46.203Z,14.20
2023-02-17T11:42:17.795Z,14.80
2023-02-17T11:44:46.498Z,15.30
2023-02-17T11:47:22.340Z,15.50
2023-02-17T11:50:06.066Z,14.60
2023-02-17T11:52:51.286Z,14.20
2023-02-17T11:55:22.569Z,13.80
2023-02-17T11:58:07.412Z,13.20
2023-02-17T12:00:46.193Z,13.30
2023-02-17T12:03:30.701Z,13.20
2023-02-17T12:06:09.398Z,13.20
2023-02-17T12:08:55.170Z,13.00
2023-02-17T12:11:33.431Z,12.50
2023-02-17T12:14:17.517Z,12.30
2023-02-17T12:16:52.963Z,12.00
2023-02-17T12:19:39.515Z,12.00
2023-02-17T12:22:18.098Z,11.80
2023-02-17T12:25:01.816Z,11.80
2023-02-17T12:27:39.996Z,11.80
2023-02-17T12:30:20.535Z,11.70
2023-02-17T12:33:01.354Z,11.50
2023-02-17T12:35:37.736Z,11.50
2023-02-17T12:38:12.812Z,11.50
2023-02-17T12:40:46.772Z,11.40
2023-02-17T12:43:25.162Z,11.20
2023-02-17T12:45:55.962Z,11.30
2023-02-17T12:48:29.351Z,11.20
2023-02-17T12:51:03.435Z,11.10
2023-02-17T12:53:46.102Z,11.30
2023-02-17T12:56:41.890Z,11.40
2023-02-17T12:59:16.916Z,11.50
2023-02-17T13:01:53.032Z,11.60
2023-02-17T13:04:24.988Z,11.70
2023-02-17T13:07:00.728Z,11.80
2023-02-17T13:09:33.931Z,11.80
2023-02-17T13:12:32.552Z,11.80
2023-02-17T13:15:02.516Z,12.00
2023-02-17T13:17:33.757Z,12.60
2023-02-17T13:20:25.814Z,12.90
2023-02-17T13:23:06.221Z,13.00
2023-02-17T13:25:37.619Z,13.10
2023-02-17T13:28:32.453Z,12.90
2023-02-17T13:31:15.144Z,12.60
2023-02-17T13:33:49.210Z,12.90
2023-02-17T13:36:34.850Z,13.10
2023-02-17T13:39:05.341Z,13.00
2023-02-17T13:41:44.738Z,12.70
2023-02-17T13:44:28.714Z,12.50
2023-02-17T13:47:00.975Z,12.30
2023-02-17T13:49:33.030Z,12.00
2023-02-17T13:52:19.073Z,11.90
2023-02-17T13:54:54.684Z,11.80
2023-02-17T13:57:27.858Z,11.70
2023-02-17T14:00:10.190Z,11.60
2023-02-17T14:02:46.134Z,11.40
2023-02-17T14:05:19.866Z,11.40
2023-02-17T14:07:49.257Z,11.40
2023-02-17T14:10:20.178Z,11.40
2023-02-17T14:12:49.232Z,11.50
2023-02-17T14:15:20.916Z,11.40
2023-02-17T14:17:49.129Z,11.60
2023-02-17T14:20:35.294Z,11.70
2023-02-17T14:23:11.550Z,11.90
2023-02-17T14:25:41.765Z,12.10
2023-02-17T14:28:20.320Z,12.30
2023-02-17T14:30:50.092Z,12.20
2023-02-17T14:33:24.469Z,12.10
2023-02-17T14:35:55.975Z,12.10
2023-02-17T14:38:26.362Z,12.00
2023-02-17T14:40:55.851Z,11.80
2023-02-17T14:43:24.175Z,11.60
2023-02-17T14:45:53.650Z,11.50
2023-02-17T14:48:21.577Z,11.40
2023-02-17T14:50:50.396Z,11.30
2023-02-17T14:53:25.640Z,11.20
2023-02-17T14:55:59.259Z,11.10
2023-02-17T14:58:29.075Z,11.10
2023-02-17T15:00:58.785Z,11.00
2023-02-17T15:03:27.334Z,11.00
2023-02-17T15:05:56.049Z,11.00
2023-02-17T15:08:30.937Z,11.00
2023-02-17T15:10:59.085Z,11.00
2023-02-17T15:13:27.456Z,11.00
2023-02-17T15:15:55.578Z,11.00
2023-02-17T15:18:27.677Z,10.90
2023-02-17T15:20:56.088Z,10.90
2023-02-17T15:23:26.336Z,10.80
2023-02-17T15:25:56.515Z,10.80
2023-02-17T15:28:24.569Z,10.70
2023-02-17T15:30:54.504Z,10.70
2023-02-17T15:33:25.658Z,10.50
2023-02-17T15:35:55.258Z,10.50
2023-02-17T15:38:23.770Z,10.50
2023-02-17T15:40:52.243Z,10.50
2023-02-17T15:43:22.774Z,10.50
2023-02-17T15:45:51.036Z,10.40
2023-02-17T15:48:26.281Z,10.40
2023-02-17T15:50:54.884Z,10.40
2023-02-17T15:53:23.170Z,10.30
2023-02-17T15:55:52.135Z,10.30
2023-02-17T15:58:23.150Z,10.20
2023-02-17T16:00:51.458Z,10.20
2023-02-17T16:03:19.749Z,10.20
2023-02-17T16:05:49.273Z,10.20
2023-02-17T16:08:17.125Z,10.10
2023-02-17T16:10:46.711Z,10.00
2023-02-17T16:13:19.478Z,10.00
2023-02-17T16:15:48.224Z,10.00
2023-02-17T16:18:21.959Z,10.10
2023-02-17T16:20:52.269Z,10.20
2023-02-17T16:23:20.461Z,10.20
2023-02-17T16:25:49.422Z,10.20
2023-02-17T16:28:19.436Z,10.20
2023-02-17T16:30:49.609Z,10.20
2023-02-17T16:33:18.691Z,10.20
2023-02-17T16:35:47.283Z,10.10
2023-02-17T16:38:21.549Z,10.20
2023-02-17T16:40:52.838Z,10.20
2023-02-17T16:43:23.263Z,10.20
2023-02-17T16:45:55.309Z,10.10
2023-02-17T16:48:24.687Z,10.10
2023-02-17T16:50:52.769Z,10.10
2023-02-17T16:53:22.596Z,10.10
2023-02-17T16:55:51.700Z,10.10
2023-02-17T16:58:22.601Z,10.10
2023-02-17T17:00:53.018Z,10.10
2023-02-17T17:03:22.122Z,10.00
2023-02-17T17:05:51.111Z,10.10
2023-02-17T17:08:21.590Z,10.10
2023-02-17T17:10:51.513Z,10.00
2023-02-17T17:13:19.429Z,10.10
2023-02-17T17:15:47.951Z,10.10
2023-02-17T17:18:21.162Z,10.10
2023-02-17T17:20:49.793Z,10.10
2023-02-17T17:23:19.072Z,10.00
2023-02-17T17:25:48.588Z,10.00
2023-02-17T17:28:19.795Z,10.00
2023-02-17T17:30:48.283Z,10.00
2023-02-17T17:33:16.567Z,10.00
2023-02-17T17:35:44.703Z,10.00
2023-02-17T17:38:16.396Z,10.00
2023-02-17T17:40:50.459Z,10.00
2023-02-17T17:43:21.442Z,10.00
2023-02-17T17:45:50.181Z,10.00
2023-02-17T17:48:19.535Z,10.00
2023-02-17T17:50:49.036Z,10.00
2023-02-17T17:53:16.899Z,10.00
2023-02-17T17:55:44.941Z,10.10
2023-02-17T17:58:13.848Z,10.10
2023-02-17T18:00:45.772Z,10.10
2023-02-17T18:03:14.029Z,10.10
2023-02-17T18:05:42.149Z,10.10
2023-02-17T18:08:10.417Z,10.10
2023-02-17T18:10:40.003Z,10.10
2023-02-17T18:13:09.597Z,10.10
2023-02-17T18:15:39.813Z,10.10
2023-02-17T18:18:09.352Z,10.00
2023-02-17T18:20:37.226Z,9.90
2023-02-17T18:23:05.406Z,10.00
2023-02-17T18:25:33.513Z,10.10
2023-02-17T18:28:01.581Z,10.00
2023-02-17T18:30:30.745Z,9.90
2023-02-17T18:32:58.871Z,9.80
2023-02-17T18:35:28.419Z,9.80
2023-02-17T18:37:56.291Z,9.80
2023-02-17T18:40:25.903Z,9.80
2023-02-17T18:42:53.961Z,9.70
2023-02-17T18:45:22.447Z,9.70
2023-02-17T18:47:50.585Z,9.80
2023-02-17T18:50:18.827Z,9.70
2023-02-17T18:52:48.248Z,9.70
2023-02-17T18:55:16.766Z,9.80
2023-02-17T18:57:45.316Z,9.80
2023-02-17T19:00:16.605Z,9.80
2023-02-17T19:02:44.890Z,9.80
2023-02-17T19:05:13.761Z,9.90
2023-02-17T19:07:41.802Z,9.90
2023-02-17T19:10:12.757Z,10.00
2023-02-17T19:12:40.922Z,10.00
2023-02-17T19:15:09.398Z,10.00
2023-02-17T19:17:37.576Z,10.00
2023-02-17T19:20:08.476Z,10.00
2023-02-17T19:22:37.262Z,10.10
2023-02-17T19:25:06.389Z,10.10
2023-02-17T19:27:35.820Z,10.20
2023-02-17T19:30:04.159Z,10.20
2023-02-17T19:32:32.261Z,10.20
2023-02-17T19:35:00.657Z,10.20
2023-02-17T19:37:28.812Z,10.30
2023-02-17T19:39:56.996Z,10.30
2023-02-17T19:42:25.253Z,10.40
2023-02-17T19:44:54.708Z,10.40
2023-02-17T19:47:22.731Z,10.40
2023-02-17T19:49:50.804Z,10.40
2023-02-17T19:52:19.712Z,10.40
2023-02-17T19:54:49.422Z,10.50
2023-02-17T19:57:18.432Z,10.50
2023-02-17T19:59:46.696Z,10.50
2023-02-17T20:02:16.845Z,10.50
2023-02-17T20:04:45.540Z,10.50
2023-02-17T20:07:13.657Z,10.50
2023-02-17T20:09:41.813Z,10.50
2023-02-17T20:12:09.885Z,10.60
2023-02-17T20:14:38.495Z,10.60
2023-02-17T20:17:06.598Z,10.60
2023-02-17T20:19:37.686Z,10.60
2023-02-17T20:22:06.224Z,10.80
2023-02-17T20:24:34.782Z,10.70
2023-02-17T20:27:03.115Z,10.70
2023-02-17T20:29:31.269Z,10.60
2023-02-17T20:31:59.682Z,10.60
2023-02-17T20:34:30.849Z,10.50
2023-02-17T20:37:01.602Z,10.50
2023-02-17T20:39:29.922Z,10.50
2023-02-17T20:41:58.347Z,10.50
2023-02-17T20:44:28.109Z,10.50
2023-02-17T20:46:57.180Z,10.50
2023-02-17T20:49:25.504Z,10.60
2023-02-17T20:51:53.728Z,10.60
2023-02-17T20:54:25.420Z,10.60
2023-02-17T20:56:53.864Z,10.60
2023-02-17T20:59:21.980Z,10.60
2023-02-17T21:01:50.654Z,10.50
2023-02-17T21:04:18.815Z,10.60
2023-02-17T21:06:47.457Z,10.60
2023-02-17T21:09:16.934Z,10.50
2023-02-17T21:11:47.821Z,10.60
2023-02-17T21:14:16.409Z,10.60
2023-02-17T21:16:45.145Z,10.60
2023-02-17T21:19:13.373Z,10.50
2023-02-17T21:21:41.826Z,10.60
2023-02-17T21:24:10.094Z,10.60
2023-02-17T21:26:38.199Z,10.60
2023-02-17T21:29:07.651Z,10.60
2023-02-17T21:31:36.912Z,10.50
2023-02-17T21:34:05.652Z,10.50
2023-02-17T21:36:34.028Z,10.50
2023-02-17T21:39:04.174Z,10.50
2023-02-17T21:41:32.595Z,10.50
2023-02-17T21:44:18.563Z,10.50
2023-02-17T21:46:48.118Z,10.50
2023-02-17T21:49:15.975Z,10.50
2023-02-17T21:51:44.184Z,10.50
2023-02-17T21:54:12.353Z,10.40
2023-02-17T21:56:40.688Z,10.40
2023-02-17T21:59:09.319Z,10.40
2023-02-17T22:01:37.436Z,10.50
2023-02-17T22:04:07.198Z,10.60
2023-02-17T22:06:37.169Z,10.60
2023-02-17T22:09:07.635Z,10.60
2023-02-17T22:11:38.264Z,10.60
2023-02-17T22:14:10.029Z,10.60
2023-02-17T22:16:39.145Z,10.50
2023-02-17T22:19:10.577Z,10.40
2023-02-17T22:21:40.165Z,10.40
2023-02-17T22:24:08.254Z,10.40
2023-02-17T22:26:36.329Z,10.30
2023-02-17T22:29:04.846Z,10.30
2023-02-17T22:31:33.600Z,10.20
2023-02-17T22:34:03.629Z,10.30
2023-02-17T22:36:35.728Z,10.30
2023-02-17T22:39:04.545Z,10.30
2023-02-17T22:41:34.390Z,10.40
2023-02-17T22:44:03.634Z,10.40
2023-02-17T22:46:32.580Z,10.30
2023-02-17T22:49:00.808Z,10.30
2023-02-17T22:51:31.175Z,10.30
2023-02-17T22:54:01.796Z,10.30
2023-02-17T22:56:30.995Z,10.30
2023-02-17T22:59:01.425Z,10.30
2023-02-17T23:01:31.398Z,10.30
2023-02-17T23:03:59.764Z,10.30
2023-02-17T23:06:29.616Z,10.30
2023-02-17T23:08:58.749Z,10.30
2023-02-17T23:11:48.927Z,10.40
2023-02-17T23:14:22.429Z,10.30
2023-02-17T23:16:50.653Z,10.30
2023-02-17T23:19:21.032Z,10.30
2023-02-17T23:21:50.758Z,10.30
2023-02-17T23:24:20.913Z,10.30
2023-02-17T23:26:51.423Z,10.30
2023-02-17T23:29:20.085Z,10.30
2023-02-17T23:31:48.693Z,10.30
2023-02-17T23:34:17.819Z,10.30
2023-02-17T23:36:47.227Z,10.30
2023-02-17T23:39:16.023Z,10.30
2023-02-17T23:41:44.251Z,10.30
2023-02-17T23:44:14.587Z,10.30
2023-02-17T23:46:44.048Z,10.40
2023-02-17T23:49:13.878Z,10.40
2023-02-17T23:51:42.456Z,10.50
2023-02-17T23:54:10.631Z,10.40
2023-02-17T23:56:39.391Z,10.40
2023-02-17T23:59:07.495Z,10.30
